»·PEaware :: N2207E KSBD-KEMT

N2207E :: KSBD-KEMT

FLIGHT INFORMATION

Flight Status: Arrived
Operator: Privately registered:
United States
More flights under this callsign
Pilot: Ryan S. (26521)
Aircraft: CESSNA 172 SKYHAWK
(C172)
More flights by this aircraft type
Origin: KSBD San Bernardino Intl
United States
Destination: KEMT El Monte
United States
More flights between these airports :: More routes between these airports
Route: +
File this flight plan on PilotEdge
Remarks: CAT7
Altitude:
(Current/Filed)
0ft
Speed:
(Current/Filed)
0kts
Departed: 19-Oct-19 05:58 PM
Arrived: 19-Oct-19 07:46 PM
Distance/Time
Traveled:
40nm/1:48
Distance/Time
To Go:
Arrived

Flight Plot

Page will automatically refresh every two minutes.


Map Options




Map Legend


Flown Route
Filed Route
Departure Airport
Arrival Airport
Navaid (VOR, NDB)
Fix

Horizontal Profiles

Position Reports

Time Latitude Longitude Heading Altitude Ground
Speed
19-Oct-19 17:53 34.104464 -117.245821 286 1098ft 0kts
19-Oct-19 17:54 34.104450 -117.245838 185 1098ft 1kts
19-Oct-19 17:55 34.103714 -117.245516 148 1099ft 15kts
19-Oct-19 17:56 34.102990 -117.241355 94 1107ft 36kts
19-Oct-19 17:57 34.101303 -117.233765 109 1123ft 49kts
19-Oct-19 17:58 34.100141 -117.224903 66 1146ft 51kts
19-Oct-19 17:59 34.101433 -117.219496 187 1160ft 0kts
19-Oct-19 18:00 34.100896 -117.219712 185 1159ft 0kts
19-Oct-19 18:01 34.100896 -117.219712 185 1159ft 0kts
19-Oct-19 18:02 34.100896 -117.219712 185 1159ft 0kts
19-Oct-19 18:03 34.100896 -117.219712 185 1159ft 0kts
19-Oct-19 18:04 34.099159 -117.221744 248 1152ft 56kts
19-Oct-19 18:05 34.096102 -117.232720 257 1418ft 73kts
19-Oct-19 18:06 34.093800 -117.243518 249 1685ft 79kts
19-Oct-19 18:07 34.092051 -117.254535 263 2047ft 70kts
19-Oct-19 18:08 34.091219 -117.264686 268 2223ft 86kts
19-Oct-19 18:09 34.091327 -117.276028 271 2501ft 86kts
19-Oct-19 18:10 34.093020 -117.287166 292 2723ft 92kts
19-Oct-19 18:11 34.092260 -117.299002 256 3050ft 84kts
19-Oct-19 18:12 34.089527 -117.311553 257 3173ft 101kts
19-Oct-19 18:13 34.081693 -117.311445 75 3172ft 110kts
19-Oct-19 18:14 34.081213 -117.295135 97 2694ft 114kts
19-Oct-19 18:15 34.079640 -117.278643 100 2363ft 105kts
19-Oct-19 18:16 34.078421 -117.262775 94 2041ft 101kts
19-Oct-19 18:17 34.078257 -117.247196 75 1817ft 88kts
19-Oct-19 18:18 34.081550 -117.233166 75 1647ft 85kts
19-Oct-19 18:19 34.085667 -117.218065 73 1724ft 100kts
19-Oct-19 18:20 34.089677 -117.203047 38 1708ft 69kts
19-Oct-19 18:21 34.099066 -117.202896 326 1694ft 70kts
19-Oct-19 18:22 34.101591 -117.213612 247 1528ft 79kts
19-Oct-19 18:23 34.098659 -117.223328 250 1149ft 51kts
19-Oct-19 18:24 34.097709 -117.227277 253 1137ft 18kts
19-Oct-19 18:25 34.099172 -117.226538 25 1139ft 16kts
19-Oct-19 18:26 34.100500 -117.226921 143 1139ft 0kts
19-Oct-19 18:27 34.100500 -117.226921 143 1139ft 0kts
19-Oct-19 18:28 34.100500 -117.226921 143 1139ft 0kts
19-Oct-19 18:29 34.100500 -117.226921 143 1139ft 0kts
19-Oct-19 18:30 34.100500 -117.226921 143 1139ft 0kts
19-Oct-19 18:31 34.100500 -117.226921 143 1139ft 0kts
19-Oct-19 18:32 34.100500 -117.226921 143 1139ft 0kts
19-Oct-19 18:33 34.100500 -117.226921 143 1139ft 0kts
19-Oct-19 18:34 34.100500 -117.226921 143 1139ft 0kts
19-Oct-19 18:35 34.100500 -117.226921 143 1139ft 0kts
19-Oct-19 18:36 34.100500 -117.226921 143 1139ft 0kts
19-Oct-19 18:37 34.100500 -117.226921 143 1139ft 0kts
19-Oct-19 18:38 34.100500 -117.226921 143 1139ft 0kts
19-Oct-19 18:39 34.100500 -117.226921 143 1139ft 0kts
19-Oct-19 18:40 34.100500 -117.226921 143 1139ft 0kts
19-Oct-19 18:41 34.100500 -117.226921 143 1139ft 0kts
19-Oct-19 18:42 34.100500 -117.226921 143 1139ft 0kts
19-Oct-19 18:43 34.100494 -117.226915 143 1139ft 1kts
19-Oct-19 18:44 34.099790 -117.225772 67 1142ft 17kts
19-Oct-19 18:45 34.101010 -117.219778 165 1159ft 15kts
19-Oct-19 18:46 34.100841 -117.219741 162 1159ft 0kts
19-Oct-19 18:47 34.100148 -117.219617 192 1159ft 16kts
19-Oct-19 18:48 34.097735 -117.226619 250 1140ft 86kts
19-Oct-19 18:49 34.094517 -117.238922 254 1439ft 90kts
19-Oct-19 18:50 34.091762 -117.250460 255 1835ft 81kts
19-Oct-19 18:51 34.090105 -117.261847 260 2140ft 81kts
19-Oct-19 18:52 34.088621 -117.273265 265 2432ft 81kts
19-Oct-19 18:53 34.088156 -117.284476 265 2709ft 82kts
19-Oct-19 18:54 34.087429 -117.294904 276 2934ft 85kts
19-Oct-19 18:55 34.087967 -117.306413 268 3208ft 85kts
19-Oct-19 18:56 34.087044 -117.317828 260 3473ft 84kts
19-Oct-19 18:57 34.085477 -117.328806 259 3722ft 84kts
19-Oct-19 18:58 34.083819 -117.339477 259 3958ft 84kts
19-Oct-19 18:59 34.081934 -117.352134 259 3962ft 109kts
19-Oct-19 19:00 34.079679 -117.367533 260 3955ft 121kts
19-Oct-19 19:01 34.077168 -117.384806 260 3953ft 126kts
19-Oct-19 19:02 34.074816 -117.401069 260 3952ft 128kts
19-Oct-19 19:03 34.072391 -117.417913 260 3952ft 129kts
19-Oct-19 19:04 34.069917 -117.435180 260 3952ft 129kts
19-Oct-19 19:05 34.067627 -117.452435 262 3951ft 129kts
19-Oct-19 19:06 34.065663 -117.469832 262 3951ft 129kts
19-Oct-19 19:07 34.063744 -117.487020 262 3951ft 130kts
19-Oct-19 19:08 34.061924 -117.503416 262 3951ft 130kts
19-Oct-19 19:09 34.060178 -117.519237 262 3951ft 130kts
19-Oct-19 19:10 34.058486 -117.535180 265 3947ft 130kts
19-Oct-19 19:11 34.059794 -117.552537 281 3914ft 131kts
19-Oct-19 19:12 34.063594 -117.569363 289 3912ft 131kts
19-Oct-19 19:13 34.066697 -117.586172 274 3894ft 131kts
19-Oct-19 19:14 34.067241 -117.599528 271 3972ft 126kts
19-Oct-19 19:16 34.067385 -117.613401 270 3932ft 128kts
19-Oct-19 19:17 34.066195 -117.630265 263 3957ft 129kts
19-Oct-19 19:18 34.064482 -117.646571 262 3955ft 129kts
19-Oct-19 19:19 34.062903 -117.661624 262 3955ft 129kts
19-Oct-19 19:20 34.061157 -117.678356 262 3955ft 130kts
19-Oct-19 19:21 34.059867 -117.695851 273 3932ft 131kts
19-Oct-19 19:22 34.060502 -117.713496 274 3971ft 127kts
19-Oct-19 19:23 34.062374 -117.729315 280 3967ft 128kts
19-Oct-19 19:24 34.064864 -117.746402 279 3953ft 129kts
19-Oct-19 19:25 34.067372 -117.764006 279 3954ft 129kts
19-Oct-19 19:26 34.069960 -117.782095 279 3954ft 130kts
19-Oct-19 19:27 34.072573 -117.800266 279 3954ft 130kts
19-Oct-19 19:28 34.075304 -117.819157 279 3954ft 130kts
19-Oct-19 19:29 34.077907 -117.837077 279 3954ft 130kts
19-Oct-19 19:30 34.080370 -117.853956 279 3954ft 130kts
19-Oct-19 19:31 34.082876 -117.871049 279 3954ft 130kts
19-Oct-19 19:32 34.084432 -117.884090 271 3958ft 129kts
19-Oct-19 19:33 34.083833 -117.898679 265 3972ft 128kts
19-Oct-19 19:34 34.082685 -117.913405 264 3939ft 131kts
19-Oct-19 19:34 34.081709 -117.925995 265 3673ft 131kts
19-Oct-19 19:36 34.080285 -117.945216 266 3050ft 136kts
19-Oct-19 19:37 34.080290 -117.958271 274 2757ft 133kts
19-Oct-19 19:37 34.082986 -117.970854 289 2465ft 128kts
19-Oct-19 19:38 34.087588 -117.984579 297 2096ft 127kts
19-Oct-19 19:40 34.097350 -117.999101 311 1568ft 114kts
19-Oct-19 19:40 34.102018 -118.006831 294 1518ft 87kts
19-Oct-19 19:41 34.103204 -118.016450 258 1318ft 72kts
19-Oct-19 19:42 34.101051 -118.024938 235 945ft 84kts
19-Oct-19 19:43 34.095122 -118.029622 205 606ft 73kts
19-Oct-19 19:44 34.088931 -118.033161 207 295ft 57kts
19-Oct-19 19:45 34.086449 -118.034574 199 287ft 9kts
19-Oct-19 19:46 34.085366 -118.034501 86 287ft 6kts
19-Oct-19 19:47 34.085781 -118.033745 17 288ft 4kts
19-Oct-19 19:48 34.085915 -118.033672 25 289ft 0kts

Navigation Log

Ident Type
Flight plan parsing failed, navigation log unavailable